Time;durP1;ratioP1;P1;durP2;ratioP2;P2;SDS_P1;SDS_P2;PMS_P1;PMS_P2;Temp;Humidity;BMP_temperature;BMP_pressure;BME280_temperature;BME280_humidity;BME280_pressure;Samples;Min_cycle;Max_cycle;Signal;HPM_P1;HPM_P2
2022/05/24 00:00:09;;;;;;;10.18;7.80;;;16.10;82.40;;;;;;5116092;28;20019;-34
2022/05/24 00:02:35;;;;;;;8.60;7.70;;;16.10;83.00;;;;;;5116128;28;20050;-35
2022/05/24 00:05:00;;;;;;;8.88;7.97;;;16.10;82.40;;;;;;5115732;28;20024;-35
2022/05/24 00:07:26;;;;;;;9.98;8.40;;;16.10;82.40;;;;;;5115966;28;20478;-35
2022/05/24 00:09:52;;;;;;;9.45;8.02;;;16.20;82.40;;;;;;5115764;28;20038;-36
2022/05/24 00:12:18;;;;;;;10.00;8.73;;;16.10;82.30;;;;;;5115411;28;20099;-36
2022/05/24 00:17:28;;;;;;;9.88;8.15;;;16.10;82.40;;;;;;5115404;28;20347;-35
2022/05/24 00:19:54;;;;;;;9.40;8.27;;;16.10;82.50;;;;;;5115381;28;20114;-36
2022/05/24 00:22:20;;;;;;;9.52;8.18;;;16.10;82.60;;;;;;5115731;28;20469;-34
2022/05/24 00:24:45;;;;;;;9.38;8.38;;;16.10;82.60;;;;;;5115506;28;20474;-34
2022/05/24 00:27:11;;;;;;;11.27;8.98;;;16.10;82.50;;;;;;5115497;28;20023;-36
2022/05/24 00:29:36;;;;;;;12.50;8.82;;;16.10;83.20;;;;;;5114788;28;20028;-35
2022/05/24 00:32:02;;;;;;;11.63;9.30;;;16.10;82.50;;;;;;5114966;28;20027;-35
2022/05/24 00:34:28;;;;;;;10.48;9.20;;;16.20;82.50;;;;;;5115152;28;20096;-34
2022/05/24 00:36:53;;;;;;;16.77;9.90;;;16.20;82.50;;;;;;5115026;28;20077;-36
2022/05/24 00:39:19;;;;;;;10.93;9.43;;;16.20;82.50;;;;;;5114811;28;20020;-28
2022/05/24 00:41:56;;;;;;;13.40;10.85;;;16.20;82.50;;;;;;5115222;28;20344;-38
2022/05/24 00:44:29;;;;;;;13.38;10.90;;;16.20;82.50;;;;;;5114814;27;20016;-38
2022/05/24 00:47:03;;;;;;;12.32;10.80;;;16.20;82.50;;;;;;5115004;28;20019;-37
2022/05/24 00:49:37;;;;;;;13.43;10.75;;;16.20;82.50;;;;;;5114698;28;20024;-40
2022/05/24 00:52:06;;;;;;;16.48;12.05;;;16.20;82.50;;;;;;5114655;28;20035;-39
2022/05/24 00:54:31;;;;;;;14.27;12.45;;;16.20;82.40;;;;;;5114699;28;20026;-37
2022/05/24 00:57:10;;;;;;;14.98;12.65;;;16.20;82.40;;;;;;5114451;28;20491;-40
2022/05/24 00:59:51;;;;;;;14.77;13.15;;;16.20;82.50;;;;;;5114515;28;20390;-38
2022/05/24 01:02:18;;;;;;;14.70;12.48;;;16.10;82.50;;;;;;5114396;28;20023;-37
2022/05/24 01:04:43;;;;;;;14.82;13.32;;;16.10;82.40;;;;;;5114570;28;20020;-42
2022/05/24 01:07:10;;;;;;;18.60;14.40;;;16.10;82.50;;;;;;5114575;28;20498;-44
2022/05/24 01:09:45;;;;;;;20.10;15.52;;;16.00;82.40;;;;;;5114331;28;20028;-44
2022/05/24 01:12:21;;;;;;;15.93;14.13;;;16.00;82.50;;;;;;5114456;27;20024;-44
2022/05/24 01:14:48;;;;;;;16.42;13.95;;;16.00;82.50;;;;;;5112800;28;20027;-44
2022/05/24 01:17:13;;;;;;;14.65;13.10;;;16.00;82.40;;;;;;5114182;28;20028;-43
2022/05/24 01:19:43;;;;;;;17.40;13.52;;;15.90;82.40;;;;;;5114348;28;20107;-47
2022/05/24 01:22:37;;;;;;;16.58;14.10;;;16.00;82.40;;;;;;5112789;28;20359;-45
2022/05/24 01:25:25;;;;;;;15.43;12.82;;;15.90;82.20;;;;;;5114071;28;20035;-43
2022/05/24 01:27:51;;;;;;;16.50;13.88;;;15.90;82.00;;;;;;5114000;28;20479;-46
2022/05/24 01:30:17;;;;;;;14.70;13.07;;;15.90;82.00;;;;;;5114238;28;20016;-43
2022/05/24 01:38:17;;;;;;;19.02;14.10;;;15.70;81.80;;;;;;5114102;28;20039;-44
2022/05/24 01:40:46;;;;;;;16.83;13.93;;;15.70;81.90;;;;;;5113154;28;20028;-43
2022/05/24 01:43:12;;;;;;;17.20;13.55;;;15.70;81.90;;;;;;5113696;28;20020;-44
2022/05/24 01:45:46;;;;;;;16.63;14.48;;;15.70;81.80;;;;;;5113787;28;20064;-46
2022/05/24 01:48:15;;;;;;;18.70;14.85;;;15.70;81.90;;;;;;5113622;28;20138;-43
2022/05/24 01:50:44;;;;;;;17.60;15.18;;;15.70;81.80;;;;;;5114272;28;20023;-40
2022/05/24 01:53:16;;;;;;;17.77;15.82;;;15.70;81.90;;;;;;5113925;28;20475;-43
2022/05/24 01:55:49;;;;;;;23.23;17.87;;;15.60;81.80;;;;;;5113585;28;20031;-45
2022/05/24 01:58:17;;;;;;;20.38;16.77;;;15.60;81.90;;;;;;5113335;28;20281;-45
2022/05/24 02:00:58;;;;;;;20.30;16.50;;;15.60;81.90;;;;;;5113697;28;20074;-43
2022/05/24 02:03:24;;;;;;;19.30;16.10;;;15.60;81.90;;;;;;5112033;28;20088;-44
2022/05/24 02:05:50;;;;;;;17.20;15.25;;;15.60;81.90;;;;;;5113566;28;20016;-43
2022/05/24 02:08:15;;;;;;;19.48;15.27;;;15.60;81.90;;;;;;5113633;28;20031;-45
2022/05/24 02:10:55;;;;;;;20.30;15.85;;;15.60;81.90;;;;;;5113518;28;20023;-46
2022/05/24 02:13:43;;;;;;;17.30;14.50;;;15.50;81.90;;;;;;5113998;28;20039;-45
2022/05/24 02:16:12;;;;;;;16.85;13.75;;;15.50;81.90;;;;;;5113288;28;20100;-44
2022/05/24 02:18:41;;;;;;;18.05;13.23;;;15.50;81.90;;;;;;5113254;28;20032;-45
2022/05/24 02:21:07;;;;;;;14.30;12.73;;;15.40;81.90;;;;;;5113220;28;20030;-42
2022/05/24 02:23:42;;;;;;;15.63;12.00;;;15.50;81.80;;;;;;5112442;28;20455;-46
2022/05/24 02:26:09;;;;;;;12.35;10.65;;;15.40;81.70;;;;;;5113492;28;20027;-38
2022/05/24 02:28:35;;;;;;;15.95;11.85;;;15.50;81.70;;;;;;5111895;28;20107;-38
2022/05/24 02:31:06;;;;;;;13.23;10.98;;;15.50;81.60;;;;;;5113425;28;20115;-38
2022/05/24 02:33:34;;;;;;;12.82;10.63;;;15.40;81.50;;;;;;5113463;28;20471;-38
2022/05/24 02:36:01;;;;;;;12.48;9.77;;;15.40;81.50;;;;;;5113572;28;20028;-37
2022/05/24 02:38:27;;;;;;;14.82;9.50;;;15.40;81.40;;;;;;5113270;28;20091;-37
2022/05/24 02:43:37;;;;;;;13.13;9.85;;;15.40;81.30;;;;;;5113402;28;20088;-38
2022/05/24 02:46:03;;;;;;;12.68;8.65;;;15.30;80.90;;;;;;5113230;28;20047;-37
2022/05/24 02:48:29;;;;;;;10.32;7.50;;;15.30;81.00;;;;;;5113196;28;20031;-38
2022/05/24 02:50:55;;;;;;;8.90;6.65;;;15.20;81.00;;;;;;5113787;28;20023;-38
2022/05/24 02:53:21;;;;;;;9.57;6.70;;;15.10;81.10;;;;;;5117184;28;20028;-37
2022/05/24 02:55:47;;;;;;;11.38;7.28;;;15.00;81.10;;;;;;5115942;28;20107;-34
2022/05/24 02:58:12;;;;;;;8.63;6.40;;;15.00;81.00;;;;;;5117149;28;20181;-35
2022/05/24 03:00:38;;;;;;;10.63;5.85;;;14.90;81.10;;;;;;5117239;28;20027;-34
2022/05/24 03:03:04;;;;;;;9.98;6.15;;;14.80;81.00;;;;;;5117404;28;20024;-35
2022/05/24 03:05:29;;;;;;;9.77;6.32;;;14.80;81.00;;;;;;5117233;28;20031;-35
2022/05/24 03:10:40;;;;;;;9.35;5.68;;;14.70;81.20;;;;;;5117335;28;20120;-36
2022/05/24 03:15:52;;;;;;;8.55;4.72;;;14.60;81.30;;;;;;5117241;28;20034;-34
2022/05/24 03:18:19;;;;;;;8.38;5.03;;;14.70;81.20;;;;;;5116638;28;20172;-36
2022/05/24 03:20:44;;;;;;;8.45;4.85;;;14.60;81.10;;;;;;5116606;28;20537;-36
2022/05/24 03:23:11;;;;;;;10.95;5.15;;;14.60;81.00;;;;;;5116846;28;20020;-36
2022/05/24 03:25:37;;;;;;;7.82;4.32;;;14.70;80.90;;;;;;5116642;28;20019;-47
2022/05/24 03:28:05;;;;;;;7.13;4.32;;;14.70;81.00;;;;;;5116506;28;20027;-35
2022/05/24 03:30:32;;;;;;;7.15;4.05;;;14.60;80.90;;;;;;5116623;28;20027;-36
2022/05/24 03:32:58;;;;;;;7.13;4.50;;;14.70;80.80;;;;;;5116290;28;20032;-34
2022/05/24 03:35:24;;;;;;;6.22;4.10;;;14.70;80.70;;;;;;5116675;28;20020;-36
2022/05/24 03:37:50;;;;;;;6.00;3.60;;;14.70;80.50;;;;;;5116257;28;20024;-34
2022/05/24 03:40:16;;;;;;;7.32;4.00;;;14.70;80.50;;;;;;5116323;28;20352;-36
2022/05/24 03:42:42;;;;;;;5.43;3.88;;;14.70;80.30;;;;;;5116332;27;20065;-34
2022/05/24 03:45:09;;;;;;;7.57;4.07;;;14.70;80.30;;;;;;5116428;28;20024;-36
2022/05/24 03:47:36;;;;;;;6.72;4.38;;;14.70;80.30;;;;;;5116300;28;20028;-35
2022/05/24 03:50:04;;;;;;;5.53;3.72;;;14.70;80.30;;;;;;5116389;28;20554;-34
2022/05/24 03:52:30;;;;;;;7.70;3.90;;;14.70;80.20;;;;;;5116059;28;20031;-35
2022/05/24 03:54:56;;;;;;;6.85;3.95;;;14.60;80.20;;;;;;5116211;28;20035;-35
2022/05/24 04:00:07;;;;;;;9.02;4.20;;;14.60;80.90;;;;;;5115770;28;20104;-36
2022/05/24 04:02:33;;;;;;;7.78;4.18;;;14.60;80.20;;;;;;5114220;28;20100;-35
2022/05/24 04:04:58;;;;;;;8.23;3.70;;;14.60;80.20;;;;;;5115340;28;20027;-34
2022/05/24 04:07:24;;;;;;;5.63;3.50;;;14.70;80.20;;;;;;5115655;28;20036;-35
2022/05/24 04:09:49;;;;;;;4.53;3.47;;;14.70;80.20;;;;;;5116048;28;20032;-35
2022/05/24 04:12:15;;;;;;;6.60;3.40;;;14.70;80.10;;;;;;5115757;28;20027;-34
2022/05/24 04:14:41;;;;;;;6.97;3.60;;;14.70;80.00;;;;;;5115544;28;20039;-36
2022/05/24 04:17:06;;;;;;;4.57;3.67;;;14.70;80.00;;;;;;5115609;28;20028;-35
2022/05/24 04:19:32;;;;;;;10.88;3.95;;;14.60;79.90;;;;;;5115663;28;20509;-35
2022/05/24 04:21:57;;;;;;;9.75;3.78;;;14.60;79.90;;;;;;5115355;28;20059;-34
2022/05/24 04:24:23;;;;;;;6.55;3.80;;;14.70;80.00;;;;;;5115742;28;20475;-35
2022/05/24 04:26:49;;;;;;;6.05;3.95;;;14.60;79.90;;;;;;5114059;28;20027;-35
2022/05/24 04:29:14;;;;;;;8.30;4.15;;;14.60;79.90;;;;;;5115426;28;20062;-35
2022/05/24 04:31:41;;;;;;;6.03;3.40;;;14.60;80.00;;;;;;5115472;28;20102;-35
2022/05/24 04:34:06;;;;;;;7.03;3.92;;;14.60;80.00;;;;;;5115399;28;20110;-36
2022/05/24 04:36:32;;;;;;;5.45;3.90;;;14.60;79.90;;;;;;5115515;28;20059;-35
2022/05/24 04:38:59;;;;;;;6.00;3.88;;;14.70;79.80;;;;;;5115354;28;20027;-36
2022/05/24 04:44:09;;;;;;;7.50;4.00;;;14.70;80.00;;;;;;5115193;28;20039;-35
2022/05/24 04:47:20;;;;;;;10.73;4.38;;;14.70;79.70;;;;;;5115132;28;20024;-35
2022/05/24 04:49:22;;;;;;;6.50;4.30;;;14.70;79.70;;;;;;5114352;28;20039;-35
2022/05/24 04:51:52;;;;;;;10.07;4.43;;;14.70;79.60;;;;;;5114836;28;20055;-34
2022/05/24 04:54:17;;;;;;;8.60;4.22;;;14.70;79.50;;;;;;5114875;28;20110;-34
2022/05/24 04:56:43;;;;;;;9.73;4.50;;;14.70;79.50;;;;;;5114872;28;20447;-34
2022/05/24 04:59:08;;;;;;;9.93;4.38;;;14.60;79.40;;;;;;5114890;28;20031;-35
2022/05/24 05:01:34;;;;;;;8.90;4.80;;;14.60;79.50;;;;;;5114849;28;20474;-35
2022/05/24 05:04:00;;;;;;;8.00;4.63;;;14.60;79.60;;;;;;5114559;28;20023;-35
2022/05/24 05:06:25;;;;;;;6.38;4.60;;;14.70;79.60;;;;;;5113254;28;20046;-35
2022/05/24 05:08:51;;;;;;;9.50;4.90;;;14.60;79.50;;;;;;5114479;28;20095;-34
2022/05/24 05:11:17;;;;;;;9.85;5.18;;;14.70;79.40;;;;;;5114409;28;20027;-34
2022/05/24 05:13:43;;;;;;;9.52;4.38;;;14.70;79.40;;;;;;5114727;28;20027;-34
2022/05/24 05:16:08;;;;;;;6.35;4.75;;;14.70;79.30;;;;;;5113574;28;20107;-35
2022/05/24 05:18:34;;;;;;;6.30;4.75;;;14.80;79.30;;;;;;5114234;28;20111;-35
2022/05/24 05:21:00;;;;;;;9.13;5.20;;;14.70;79.20;;;;;;5114514;28;20032;-36
2022/05/24 05:23:26;;;;;;;8.15;5.05;;;14.70;79.20;;;;;;5114419;28;20038;-36
2022/05/24 05:25:51;;;;;;;8.10;5.38;;;14.70;79.20;;;;;;5112839;28;20023;-34
2022/05/24 05:28:19;;;;;;;8.35;5.35;;;14.60;79.30;;;;;;5114184;28;20038;-35
2022/05/24 05:33:31;;;;;;;6.55;4.90;;;14.60;79.40;;;;;;5114068;28;20062;-35
2022/05/24 05:35:57;;;;;;;7.88;5.65;;;14.70;79.40;;;;;;5114311;28;20036;-34
2022/05/24 05:38:23;;;;;;;8.63;5.40;;;14.60;79.30;;;;;;5114085;28;20080;-35
2022/05/24 05:40:53;;;;;;;6.15;4.68;;;14.60;79.30;;;;;;5114478;28;20103;-35
2022/05/24 05:43:19;;;;;;;9.68;6.20;;;14.70;79.30;;;;;;5114150;28;20102;-35
2022/05/24 05:45:54;;;;;;;10.13;5.60;;;14.60;79.20;;;;;;5114114;28;20078;-34
2022/05/24 05:48:20;;;;;;;10.93;6.05;;;14.60;79.10;;;;;;5113920;28;20054;-35
2022/05/24 05:50:47;;;;;;;10.60;5.90;;;14.60;79.20;;;;;;5113718;28;20031;-34
2022/05/24 05:53:13;;;;;;;8.32;5.35;;;14.60;79.20;;;;;;5113923;28;20035;-35
2022/05/24 05:55:41;;;;;;;9.25;6.15;;;14.60;79.30;;;;;;5113706;28;20042;-35
2022/05/24 05:58:07;;;;;;;8.95;5.32;;;14.60;79.10;;;;;;5113417;28;20051;-48
2022/05/24 06:00:33;;;;;;;10.07;6.05;;;14.60;79.00;;;;;;5113683;28;20027;-36
2022/05/24 06:02:58;;;;;;;8.75;5.63;;;14.70;78.90;;;;;;5113452;28;20031;-35
2022/05/24 06:05:24;;;;;;;9.48;6.65;;;14.70;78.80;;;;;;5113558;28;20020;-35
2022/05/24 06:07:49;;;;;;;9.73;6.57;;;14.70;78.70;;;;;;5113603;28;20028;-34
2022/05/24 06:10:15;;;;;;;9.25;6.50;;;14.70;78.60;;;;;;5113536;28;20073;-34
2022/05/24 06:12:41;;;;;;;11.65;6.50;;;14.70;78.60;;;;;;5113424;28;20118;-35
2022/05/24 06:15:07;;;;;;;8.48;5.95;;;14.60;79.10;;;;;;5113756;28;20428;-34
2022/05/24 06:17:33;;;;;;;9.27;6.32;;;14.60;78.60;;;;;;5113789;28;20088;-35
2022/05/24 06:20:02;;;;;;;9.25;6.47;;;14.70;78.60;;;;;;5113631;28;20032;-35
2022/05/24 06:22:27;;;;;;;8.80;6.50;;;14.70;78.40;;;;;;5113432;28;20035;-45
2022/05/24 06:24:53;;;;;;;7.38;5.80;;;14.80;78.50;;;;;;5113413;28;20114;-35
2022/05/24 06:27:20;;;;;;;8.77;6.18;;;14.80;78.40;;;;;;5116233;28;20451;-35
2022/05/24 06:29:46;;;;;;;9.07;6.43;;;14.90;78.30;;;;;;5117672;28;20113;-37
2022/05/24 06:32:12;;;;;;;9.13;6.10;;;14.90;78.10;;;;;;5117682;28;20063;-34
2022/05/24 06:34:37;;;;;;;8.90;6.05;;;14.90;78.10;;;;;;5117584;28;20032;-36
2022/05/24 06:37:03;;;;;;;9.40;6.10;;;14.90;78.00;;;;;;5117453;27;20039;-36
2022/05/24 06:39:29;;;;;;;7.82;5.78;;;14.90;78.00;;;;;;5117504;28;20023;-35
2022/05/24 06:41:55;;;;;;;7.10;5.03;;;14.90;78.00;;;;;;5117935;28;20024;-34
2022/05/24 06:44:21;;;;;;;6.43;5.22;;;14.90;78.00;;;;;;5117896;28;20050;-40
2022/05/24 06:46:46;;;;;;;9.88;5.75;;;14.90;77.90;;;;;;5117277;28;20019;-38
2022/05/24 06:49:12;;;;;;;8.35;5.40;;;14.90;77.70;;;;;;5116083;28;20036;-35
2022/05/24 06:51:37;;;;;;;7.72;5.22;;;14.90;77.70;;;;;;5117269;28;20034;-37
2022/05/24 06:54:03;;;;;;;10.00;6.47;;;14.90;77.70;;;;;;5117366;28;20032;-35
2022/05/24 06:56:29;;;;;;;8.52;5.47;;;14.90;77.50;;;;;;5117399;28;20070;-41
2022/05/24 07:04:25;;;;;;;8.75;5.50;;;14.80;77.20;;;;;;5117418;28;20050;-37
2022/05/24 07:06:51;;;;;;;8.20;5.75;;;14.90;77.20;;;;;;5116983;28;20425;-35
2022/05/24 07:09:16;;;;;;;7.97;5.20;;;14.90;77.10;;;;;;5116995;28;20106;-36
2022/05/24 07:11:42;;;;;;;8.77;6.25;;;15.00;77.00;;;;;;5116923;28;20080;-33
2022/05/24 07:14:08;;;;;;;8.57;5.78;;;15.00;77.40;;;;;;5116834;28;20028;-36
2022/05/24 07:16:33;;;;;;;8.68;6.40;;;15.10;76.60;;;;;;5117061;28;20519;-36
2022/05/24 07:18:59;;;;;;;6.80;5.82;;;15.20;76.40;;;;;;5116585;28;20478;-37
2022/05/24 07:21:25;;;;;;;8.25;5.78;;;15.30;76.30;;;;;;5117139;28;20031;-36
2022/05/24 07:23:51;;;;;;;7.15;5.88;;;15.40;76.00;;;;;;5116658;28;20034;-36
2022/05/24 07:26:19;;;;;;;12.68;7.57;;;15.50;75.70;;;;;;5116535;28;20027;-35
2022/05/24 07:28:44;;;;;;;7.43;6.18;;;15.60;75.20;;;;;;5116744;28;20088;-34
2022/05/24 07:31:10;;;;;;;8.40;6.28;;;15.60;75.20;;;;;;5116691;28;20478;-35
2022/05/24 07:33:37;;;;;;;10.13;6.88;;;15.70;74.80;;;;;;5116381;28;20417;-37
2022/05/24 07:36:07;;;;;;;7.53;5.95;;;15.70;74.40;;;;;;5116657;28;20027;-36
2022/05/24 07:38:32;;;;;;;6.50;5.63;;;15.80;74.60;;;;;;5115626;28;20081;-36
2022/05/24 07:46:27;;;;;;;6.00;5.30;;;15.90;73.80;;;;;;5116360;28;20035;-36
2022/05/24 07:48:52;;;;;;;5.95;5.32;;;16.00;73.70;;;;;;5116130;28;20032;-35
2022/05/24 07:51:18;;;;;;;8.50;5.50;;;16.10;73.50;;;;;;5116176;28;20398;-44
2022/05/24 07:53:44;;;;;;;9.13;5.25;;;16.10;73.10;;;;;;5116301;28;20118;-42
2022/05/24 07:56:10;;;;;;;6.50;4.57;;;16.10;73.30;;;;;;5116125;28;20106;-36
2022/05/24 07:58:36;;;;;;;6.45;4.70;;;16.20;73.30;;;;;;5116147;28;20027;-35
2022/05/24 08:01:02;;;;;;;7.05;4.00;;;16.10;71.90;;;;;;5115910;28;21117;-41
2022/05/24 08:03:29;;;;;;;4.13;3.65;;;16.10;71.80;;;;;;5116071;28;20115;-36
2022/05/24 08:05:55;;;;;;;4.30;3.40;;;16.10;71.80;;;;;;5115675;28;20152;-36
2022/05/24 08:08:21;;;;;;;4.78;3.50;;;16.00;71.80;;;;;;5115755;28;20110;-36
2022/05/24 08:10:47;;;;;;;7.05;3.45;;;16.10;71.60;;;;;;5115934;28;20499;-35
2022/05/24 08:13:15;;;;;;;4.07;3.05;;;16.20;70.60;;;;;;5115755;28;20043;-36
2022/05/24 08:15:41;;;;;;;4.53;2.83;;;16.40;70.60;;;;;;5115930;28;20046;-36
2022/05/24 08:18:08;;;;;;;6.25;3.00;;;16.40;69.90;;;;;;5115642;28;20115;-36
2022/05/24 08:20:34;;;;;;;3.78;3.47;;;16.40;69.90;;;;;;5115559;28;20031;-36
2022/05/24 08:23:01;;;;;;;4.63;3.53;;;16.40;69.60;;;;;;5115642;28;20106;-35
2022/05/24 08:25:30;;;;;;;6.13;3.67;;;16.50;69.40;;;;;;5115352;28;20077;-39
2022/05/24 08:27:58;;;;;;;3.75;3.45;;;16.50;69.20;;;;;;5115225;28;20030;-36
2022/05/24 08:30:24;;;;;;;4.78;3.50;;;16.50;69.20;;;;;;5115681;28;20031;-35
2022/05/24 08:32:50;;;;;;;4.50;3.25;;;16.50;68.70;;;;;;5115166;28;20039;-35
2022/05/24 08:35:19;;;;;;;2.25;2.05;;;16.60;68.70;;;;;;5115201;28;20127;-38
2022/05/24 08:37:45;;;;;;;7.07;2.08;;;16.70;68.20;;;;;;5115107;28;20038;-35
2022/05/24 08:40:14;;;;;;;4.53;2.03;;;16.70;67.50;;;;;;5114997;28;20529;-36
2022/05/24 08:42:59;;;;;;;3.42;1.98;;;16.80;67.90;;;;;;5115289;28;20031;-35
2022/05/24 08:48:29;;;;;;;2.58;1.77;;;17.00;66.00;;;;;;5115137;28;20501;-39
2022/05/24 08:51:01;;;;;;;4.22;1.75;;;17.00;66.10;;;;;;5114594;28;20110;-36
2022/05/24 08:53:43;;;;;;;6.78;2.00;;;17.00;66.70;;;;;;5114780;28;20023;-36
2022/05/24 08:56:18;;;;;;;4.65;1.70;;;16.90;66.50;;;;;;5114636;27;20030;-45
2022/05/24 08:58:50;;;;;;;2.55;2.20;;;16.90;66.80;;;;;;5114963;28;20030;-36
2022/05/24 09:01:22;;;;;;;2.80;2.03;;;16.80;66.80;;;;;;5114734;28;20023;-35
2022/05/24 09:03:48;;;;;;;5.85;2.05;;;16.70;67.10;;;;;;5115210;28;20073;-35
2022/05/24 09:06:51;;;;;;;4.63;1.88;;;16.60;67.40;;;;;;5114564;28;20095;-37
2022/05/24 09:09:25;;;;;;;3.67;1.88;;;16.50;67.90;;;;;;5107842;28;20123;-37
2022/05/24 09:12:13;;;;;;;3.53;1.77;;;16.40;68.60;;;;;;5114478;28;20367;-37
2022/05/24 09:15:04;;;;;;;3.58;2.00;;;16.30;69.40;;;;;;5114656;28;20036;-35
2022/05/24 09:18:08;;;;;;;2.88;1.98;;;16.30;69.90;;;;;;5114553;28;20031;-36
2022/05/24 09:20:38;;;;;;;4.03;2.05;;;16.40;70.00;;;;;;5092531;28;20513;-36
2022/05/24 09:23:25;;;;;;;4.75;1.65;;;16.50;70.00;;;;;;5114526;28;20034;-33
2022/05/24 09:25:53;;;;;;;3.65;1.65;;;16.50;69.60;;;;;;5114256;28;20031;-34
2022/05/24 09:28:19;;;;;;;2.35;1.60;;;16.50;69.40;;;;;;5112822;28;20027;-36
2022/05/24 09:30:45;;;;;;;2.08;1.50;;;16.60;68.20;;;;;;5113730;28;20038;-34
2022/05/24 09:33:29;;;;;;;2.97;1.50;;;16.60;68.40;;;;;;5113780;28;20074;-36
2022/05/24 09:35:58;;;;;;;;;;;16.70;68.20;;;;;;5114251;28;20080;-34
2022/05/24 09:38:39;;;;;;;4.32;2.17;;;16.80;68.40;;;;;;5114097;28;19912;-27
2022/05/24 09:41:18;;;;;;;4.38;2.65;;;17.00;68.20;;;;;;5112954;28;20024;-28
2022/05/24 09:44:00;;;;;;;3.47;2.35;;;17.00;67.90;;;;;;5114188;28;20027;-27
2022/05/24 09:46:27;;;;;;;7.82;2.10;;;17.10;67.70;;;;;;5113988;28;20394;-28
2022/05/24 09:49:16;;;;;;;4.13;2.80;;;17.10;67.40;;;;;;5113677;28;20046;-28
2022/05/24 09:51:43;;;;;;;3.53;2.05;;;17.10;67.20;;;;;;5113744;28;20161;-27
2022/05/24 09:54:16;;;;;;;1.95;1.80;;;17.10;67.30;;;;;;5113684;28;20110;-26
2022/05/24 09:56:57;;;;;;;3.05;1.60;;;17.10;67.00;;;;;;5113478;27;20040;-27
2022/05/24 09:59:26;;;;;;;3.13;1.55;;;17.20;67.30;;;;;;5113885;28;20035;-27
2022/05/24 10:01:53;;;;;;;3.85;2.00;;;17.30;67.10;;;;;;5111823;28;20035;-28
2022/05/24 10:04:27;;;;;;;2.58;1.77;;;17.40;66.20;;;;;;5114365;28;20356;-38
2022/05/24 10:07:23;;;;;;;2.70;1.67;;;17.40;66.10;;;;;;5113657;28;20026;-35
2022/05/24 10:10:19;;;;;;;2.38;1.70;;;17.40;66.20;;;;;;5113662;28;20031;-27
2022/05/24 10:12:44;;;;;;;3.15;1.45;;;17.50;65.80;;;;;;5113626;28;20028;-27
2022/05/24 10:15:26;;;;;;;2.03;1.20;;;17.50;65.30;;;;;;5113607;28;20023;-28
2022/05/24 10:18:28;;;;;;;2.55;1.05;;;17.50;65.10;;;;;;5113567;28;20031;-31
2022/05/24 10:21:20;;;;;;;1.40;0.70;;;17.60;64.40;;;;;;5113507;28;20103;-28
2022/05/24 10:23:49;;;;;;;1.92;0.80;;;17.70;64.30;;;;;;5113391;28;20030;-27
2022/05/24 10:26:34;;;;;;;1.13;1.05;;;17.60;63.60;;;;;;5113694;28;20023;-28
2022/05/24 10:29:41;;;;;;;3.60;1.02;;;17.50;63.90;;;;;;5113389;28;20027;-27
2022/05/24 10:38:18;;;;;;;1.70;1.30;;;17.10;66.50;;;;;;5113463;28;20149;-28
2022/05/24 10:41:22;;;;;;;3.53;1.67;;;17.10;67.00;;;;;;5113615;28;20048;-28
2022/05/24 10:43:51;;;;;;;1.83;1.52;;;17.00;67.70;;;;;;5111977;28;20024;-27
2022/05/24 10:46:25;;;;;;;2.20;1.50;;;17.00;68.00;;;;;;5112040;28;20057;-27
2022/05/24 10:49:03;;;;;;;1.90;1.58;;;16.90;68.30;;;;;;5113341;28;20024;-27
2022/05/24 10:51:57;;;;;;;2.63;1.70;;;16.90;68.20;;;;;;5113703;28;20019;-28
2022/05/24 10:54:36;;;;;;;2.78;1.30;;;16.80;68.20;;;;;;5094037;28;20092;-28
2022/05/24 10:57:16;;;;;;;1.40;1.10;;;16.70;68.80;;;;;;5113105;28;20172;-28
2022/05/24 10:59:57;;;;;;;2.00;1.27;;;16.60;69.60;;;;;;5113185;28;20474;-28
2022/05/24 11:02:38;;;;;;;1.00;0.70;;;16.50;70.10;;;;;;5113239;28;20479;-28
2022/05/24 11:05:18;;;;;;;1.30;0.90;;;16.70;70.30;;;;;;5113502;28;20469;-27
2022/05/24 11:07:48;;;;;;;1.73;0.90;;;16.90;70.00;;;;;;5112989;28;20058;-28
2022/05/24 11:10:19;;;;;;;3.33;1.15;;;17.10;69.20;;;;;;5113345;28;20020;-30
2022/05/24 11:12:48;;;;;;;0.77;0.77;;;17.20;68.10;;;;;;5114848;28;20367;-33
2022/05/24 11:15:35;;;;;;;1.20;0.70;;;17.20;67.30;;;;;;5116860;28;20478;-30
2022/05/24 11:18:03;;;;;;;1.25;0.88;;;17.20;66.90;;;;;;5116834;28;20024;-29
2022/05/24 11:20:37;;;;;;;1.08;0.82;;;17.10;67.10;;;;;;5116512;28;20036;-28
2022/05/24 11:23:11;;;;;;;2.95;1.42;;;17.10;67.40;;;;;;5116654;28;20051;-31
2022/05/24 11:25:45;;;;;;;2.03;1.10;;;17.00;67.50;;;;;;5117292;28;20455;-30
2022/05/24 11:28:21;;;;;;;3.22;1.30;;;17.00;67.40;;;;;;5116651;28;20471;-32
2022/05/24 11:30:48;;;;;;;2.47;0.80;;;16.80;67.70;;;;;;5116440;28;20015;-29
2022/05/24 11:33:32;;;;;;;1.60;0.70;;;16.60;68.30;;;;;;5116796;28;20024;-35
2022/05/24 11:36:26;;;;;;;1.80;0.80;;;16.40;68.60;;;;;;5116492;28;20019;-29
2022/05/24 11:38:52;;;;;;;1.45;0.60;;;16.30;68.90;;;;;;5116403;28;20488;-30
2022/05/24 11:41:31;;;;;;;2.00;0.55;;;16.20;68.90;;;;;;5116512;28;20470;-31
2022/05/24 11:44:00;;;;;;;0.40;0.40;;;16.20;68.80;;;;;;5116321;28;20015;-28
2022/05/24 11:46:38;;;;;;;0.90;0.60;;;16.20;68.50;;;;;;5116390;28;20028;-30
2022/05/24 11:49:21;;;;;;;1.02;0.70;;;16.20;67.90;;;;;;5116420;28;20027;-29
2022/05/24 11:51:51;;;;;;;1.35;0.60;;;16.10;67.60;;;;;;5116208;28;20463;-29
2022/05/24 11:54:18;;;;;;;1.90;0.68;;;16.00;67.60;;;;;;5116107;28;20028;-30
2022/05/24 11:57:01;;;;;;;1.02;0.70;;;16.00;68.00;;;;;;5115962;27;20105;-37
2022/05/24 11:59:38;;;;;;;1.58;0.70;;;16.10;68.00;;;;;;5115906;27;20024;-31
2022/05/24 12:02:19;;;;;;;1.35;0.60;;;16.10;68.30;;;;;;5116117;28;20372;-33
2022/05/24 12:07:57;;;;;;;1.10;0.60;;;15.90;68.10;;;;;;5115847;28;20592;-30
2022/05/24 12:10:23;;;;;;;0.77;0.55;;;16.00;68.30;;;;;;5115972;28;20039;-28
2022/05/24 12:12:52;;;;;;;1.33;0.73;;;16.10;68.40;;;;;;5115894;27;20035;-28
2022/05/24 12:15:23;;;;;;;1.55;0.65;;;16.20;68.30;;;;;;5115997;28;20077;-29
2022/05/24 12:17:57;;;;;;;1.20;0.75;;;16.30;68.30;;;;;;5116045;28;20136;-29
2022/05/24 12:20:48;;;;;;;1.52;0.90;;;16.50;68.40;;;;;;5115572;28;20027;-30
2022/05/24 12:23:29;;;;;;;2.35;0.70;;;16.80;68.40;;;;;;5115450;28;20024;-31
2022/05/24 12:26:04;;;;;;;1.05;0.90;;;17.20;67.40;;;;;;5115238;28;20057;-29
2022/05/24 12:28:32;;;;;;;2.88;0.88;;;17.60;67.00;;;;;;5115796;28;20496;-29
2022/05/24 12:30:59;;;;;;;3.70;1.20;;;17.90;65.70;;;;;;5115631;28;20047;-29
2022/05/24 12:33:24;;;;;;;2.17;1.00;;;18.00;65.10;;;;;;5115342;28;20493;-29
2022/05/24 12:36:05;;;;;;;3.35;1.27;;;18.10;64.10;;;;;;5115306;28;20019;-29
2022/05/24 12:38:31;;;;;;;1.90;0.80;;;18.10;64.00;;;;;;5115605;28;20032;-29
2022/05/24 12:41:17;;;;;;;1.77;0.75;;;17.90;64.00;;;;;;5115187;28;20020;-31
2022/05/24 12:43:52;;;;;;;0.93;0.88;;;17.80;64.10;;;;;;5115307;28;20020;-29
2022/05/24 12:46:17;;;;;;;0.80;0.80;;;17.70;65.80;;;;;;5115144;28;20026;-29
2022/05/24 12:48:43;;;;;;;1.23;0.80;;;17.70;66.80;;;;;;5115242;28;20099;-29
2022/05/24 12:51:11;;;;;;;2.05;0.75;;;17.60;67.40;;;;;;5115720;27;20024;-30
2022/05/24 12:53:38;;;;;;;2.80;0.90;;;17.70;67.90;;;;;;5114132;28;20027;-31
2022/05/24 12:56:08;;;;;;;2.08;1.27;;;17.80;67.50;;;;;;5115055;28;20019;-29
2022/05/24 12:58:39;;;;;;;1.08;0.63;;;17.80;67.60;;;;;;5114782;28;20038;-33
2022/05/24 13:01:27;;;;;;;0.88;0.43;;;17.90;67.00;;;;;;5115022;28;20039;-28
2022/05/24 13:04:09;;;;;;;0.50;0.43;;;18.00;65.40;;;;;;5114745;28;20096;-28
2022/05/24 13:06:37;;;;;;;2.00;0.60;;;18.00;64.80;;;;;;5114961;28;20024;-40
2022/05/24 13:09:13;;;;;;;2.20;0.65;;;18.00;62.90;;;;;;5114982;28;20027;-29
2022/05/24 13:11:39;;;;;;;0.90;0.55;;;18.10;61.80;;;;;;5114728;27;20031;-28
2022/05/24 13:14:09;;;;;;;0.57;0.55;;;18.20;61.70;;;;;;5114870;28;20028;-29
2022/05/24 13:16:39;;;;;;;1.35;0.73;;;18.30;60.80;;;;;;5114586;28;20070;-30
2022/05/24 13:19:05;;;;;;;0.88;0.60;;;18.40;60.10;;;;;;5114415;28;20031;-30
2022/05/24 13:21:35;;;;;;;2.25;0.80;;;18.50;60.20;;;;;;5114477;28;20027;-29
2022/05/24 13:24:17;;;;;;;1.15;0.80;;;18.60;59.70;;;;;;5114672;28;20039;-32
2022/05/24 13:27:01;;;;;;;1.85;0.85;;;18.70;59.10;;;;;;5114322;28;20084;-29
2022/05/24 13:29:29;;;;;;;2.45;0.63;;;18.70;58.60;;;;;;5113034;28;20034;-29
2022/05/24 13:34:59;;;;;;;1.65;0.70;;;18.80;59.80;;;;;;5114472;28;20147;-29
2022/05/24 13:37:44;;;;;;;0.95;0.60;;;18.80;59.30;;;;;;5113642;28;20080;-30
2022/05/24 13:40:10;;;;;;;1.63;0.70;;;18.70;59.10;;;;;;5114013;28;20524;-30
2022/05/24 13:42:57;;;;;;;1.95;1.08;;;18.70;58.70;;;;;;5114165;28;20024;-28
2022/05/24 13:45:24;;;;;;;1.80;0.80;;;18.60;58.60;;;;;;5114055;28;20028;-28
2022/05/24 13:48:16;;;;;;;3.05;0.90;;;18.40;58.80;;;;;;5113964;28;20016;-28
2022/05/24 13:50:42;;;;;;;4.90;0.88;;;18.30;59.20;;;;;;5114032;28;20023;-29